createdAt,value
2023-05-15T00:01:10.132Z,100.00
2023-05-15T00:03:57.817Z,100.00
2023-05-15T00:06:46.943Z,100.00
2023-05-15T00:09:34.707Z,100.00
2023-05-15T00:12:22.438Z,100.00
2023-05-15T00:15:10.443Z,100.00
2023-05-15T00:17:58.145Z,100.00
2023-05-15T00:20:45.951Z,100.00
2023-05-15T00:23:35.062Z,100.00
2023-05-15T00:26:24.517Z,100.00
2023-05-15T00:29:12.216Z,100.00
2023-05-15T00:32:00.000Z,100.00
2023-05-15T00:34:47.883Z,100.00
2023-05-15T00:37:35.634Z,100.00
2023-05-15T00:40:25.483Z,100.00
2023-05-15T00:43:13.436Z,100.00
2023-05-15T00:46:02.033Z,100.00
2023-05-15T00:48:51.113Z,100.00
2023-05-15T00:51:38.908Z,100.00
2023-05-15T00:54:26.762Z,100.00
2023-05-15T00:57:16.923Z,100.00
2023-05-15T01:00:07.216Z,100.00
2023-05-15T01:02:55.179Z,100.00
2023-05-15T01:05:43.110Z,100.00
2023-05-15T01:08:35.631Z,100.00
2023-05-15T01:11:25.792Z,100.00
2023-05-15T01:14:14.931Z,100.00
2023-05-15T01:17:02.867Z,100.00
2023-05-15T01:19:52.520Z,100.00
2023-05-15T01:22:45.890Z,100.00
2023-05-15T01:25:54.072Z,100.00
2023-05-15T01:28:47.125Z,100.00
2023-05-15T01:31:36.394Z,100.00
2023-05-15T01:34:24.993Z,100.00
2023-05-15T01:37:15.597Z,100.00
2023-05-15T01:40:05.868Z,100.00
2023-05-15T01:42:56.171Z,100.00
2023-05-15T01:45:46.146Z,100.00
2023-05-15T01:48:36.114Z,100.00
2023-05-15T01:51:25.096Z,100.00
2023-05-15T01:54:14.626Z,100.00
2023-05-15T01:57:02.797Z,100.00
2023-05-15T01:59:51.434Z,100.00
2023-05-15T02:02:40.975Z,100.00
2023-05-15T02:05:29.623Z,100.00
2023-05-15T02:08:17.712Z,100.00
2023-05-15T02:11:05.891Z,100.00
2023-05-15T02:13:54.155Z,100.00
2023-05-15T02:16:42.011Z,100.00
2023-05-15T02:19:31.238Z,100.00
2023-05-15T02:22:18.928Z,100.00
2023-05-15T02:25:07.057Z,100.00
2023-05-15T02:27:58.622Z,100.00
2023-05-15T02:30:50.435Z,100.00
2023-05-15T02:33:43.474Z,100.00
2023-05-15T02:36:34.947Z,100.00
2023-05-15T02:39:23.629Z,100.00
2023-05-15T02:42:12.372Z,100.00
2023-05-15T02:45:01.323Z,100.00
2023-05-15T02:47:50.627Z,100.00
2023-05-15T02:50:38.416Z,100.00
2023-05-15T02:53:27.580Z,100.00
2023-05-15T02:56:15.370Z,100.00
2023-05-15T02:59:03.153Z,100.00
2023-05-15T03:01:50.922Z,100.00
2023-05-15T03:04:38.880Z,100.00
2023-05-15T03:07:27.076Z,100.00
2023-05-15T03:10:16.436Z,100.00
2023-05-15T03:13:05.306Z,100.00
2023-05-15T03:15:53.356Z,100.00
2023-05-15T03:18:41.571Z,100.00
2023-05-15T03:21:29.360Z,100.00
2023-05-15T03:24:17.062Z,100.00
2023-05-15T03:27:06.452Z,100.00
2023-05-15T03:29:54.160Z,100.00
2023-05-15T03:32:42.009Z,100.00
2023-05-15T03:35:29.788Z,100.00
2023-05-15T03:38:17.494Z,100.00
2023-05-15T03:41:05.247Z,100.00
2023-05-15T03:43:54.355Z,100.00
2023-05-15T03:46:42.141Z,100.00
2023-05-15T03:49:29.838Z,100.00
2023-05-15T03:52:17.835Z,100.00
2023-05-15T03:55:06.137Z,100.00
2023-05-15T03:57:53.912Z,100.00
2023-05-15T04:00:43.026Z,100.00
2023-05-15T04:03:32.671Z,100.00
2023-05-15T04:06:20.466Z,100.00
2023-05-15T04:09:08.640Z,100.00
2023-05-15T04:11:56.390Z,100.00
2023-05-15T04:14:44.108Z,100.00
2023-05-15T04:17:33.320Z,100.00
2023-05-15T04:20:21.843Z,100.00
2023-05-15T04:23:09.623Z,100.00
2023-05-15T04:25:57.394Z,100.00
2023-05-15T04:28:56.200Z,100.00
2023-05-15T04:31:50.361Z,100.00
2023-05-15T04:34:39.552Z,100.00
2023-05-15T04:37:27.290Z,100.00
2023-05-15T04:40:16.695Z,100.00
2023-05-15T04:43:06.030Z,100.00
2023-05-15T04:45:53.910Z,100.00
2023-05-15T04:48:41.767Z,100.00
2023-05-15T04:51:31.047Z,100.00
2023-05-15T04:54:18.809Z,100.00
2023-05-15T04:57:07.226Z,100.00
2023-05-15T04:59:54.944Z,100.00
2023-05-15T05:02:43.577Z,100.00
2023-05-15T05:05:31.626Z,100.00
2023-05-15T05:08:20.746Z,100.00
2023-05-15T05:11:08.475Z,100.00
2023-05-15T05:13:56.315Z,100.00
2023-05-15T05:16:45.884Z,100.00
2023-05-15T05:19:33.666Z,100.00
2023-05-15T05:22:21.324Z,100.00
2023-05-15T05:25:10.782Z,100.00
2023-05-15T05:27:58.529Z,100.00
2023-05-15T05:30:46.469Z,100.00
2023-05-15T05:33:34.675Z,100.00
2023-05-15T05:36:22.451Z,100.00
2023-05-15T05:40:56.058Z,100.00
2023-05-15T05:43:44.018Z,100.00
2023-05-15T05:46:32.012Z,100.00
2023-05-15T05:49:20.014Z,100.00
2023-05-15T05:52:11.163Z,100.00
2023-05-15T05:54:59.054Z,100.00
2023-05-15T05:57:48.555Z,100.00
2023-05-15T06:00:36.533Z,100.00
2023-05-15T06:03:26.029Z,100.00
2023-05-15T06:06:14.094Z,100.00
2023-05-15T06:09:02.363Z,100.00
2023-05-15T06:11:50.379Z,100.00
2023-05-15T06:14:39.658Z,100.00
2023-05-15T06:17:27.678Z,100.00
2023-05-15T06:20:16.644Z,100.00
2023-05-15T06:23:04.565Z,100.00
2023-05-15T06:25:52.507Z,100.00
2023-05-15T06:28:40.520Z,100.00
2023-05-15T06:31:30.001Z,100.00
2023-05-15T06:34:18.032Z,100.00
2023-05-15T06:37:06.337Z,100.00
2023-05-15T06:39:54.258Z,100.00
2023-05-15T06:42:42.224Z,100.00
2023-05-15T06:45:30.174Z,100.00
2023-05-15T06:48:19.602Z,100.00
2023-05-15T06:51:07.694Z,100.00
2023-05-15T06:53:55.629Z,100.00
2023-05-15T06:56:43.696Z,100.00
2023-05-15T06:59:34.526Z,100.00
2023-05-15T07:02:22.552Z,100.00
2023-05-15T07:05:12.593Z,100.00
2023-05-15T07:08:01.780Z,100.00
2023-05-15T07:10:50.464Z,100.00
2023-05-15T07:13:38.409Z,100.00
2023-05-15T07:16:26.414Z,100.00
2023-05-15T07:19:14.595Z,100.00
2023-05-15T07:22:03.876Z,100.00
2023-05-15T07:24:51.852Z,100.00
2023-05-15T07:27:39.762Z,100.00
2023-05-15T07:30:27.908Z,100.00
2023-05-15T07:33:16.051Z,100.00
2023-05-15T07:36:04.065Z,100.00
2023-05-15T07:38:53.423Z,100.00
2023-05-15T07:41:41.335Z,100.00
2023-05-15T07:44:29.332Z,100.00
2023-05-15T07:47:17.223Z,100.00
2023-05-15T07:50:05.762Z,100.00
2023-05-15T07:52:53.841Z,100.00
2023-05-15T07:55:44.444Z,100.00
2023-05-15T07:58:35.518Z,100.00
2023-05-15T08:01:23.434Z,100.00
2023-05-15T08:04:11.586Z,100.00
2023-05-15T08:06:59.640Z,100.00
2023-05-15T08:09:47.589Z,100.00
2023-05-15T08:12:36.949Z,100.00
2023-05-15T08:15:25.284Z,100.00
2023-05-15T08:18:13.398Z,99.84
2023-05-15T08:21:02.472Z,99.92
2023-05-15T08:23:53.427Z,98.05
2023-05-15T08:26:41.404Z,98.01
2023-05-15T08:29:30.837Z,100.00
2023-05-15T08:32:18.891Z,98.93
2023-05-15T08:35:07.987Z,97.97
2023-05-15T08:37:55.912Z,97.96
2023-05-15T08:40:48.566Z,99.93
2023-05-15T08:43:39.216Z,100.00
2023-05-15T08:46:29.668Z,98.58
2023-05-15T08:49:25.551Z,99.51
2023-05-15T08:52:13.864Z,99.72
2023-05-15T08:55:02.684Z,99.24
2023-05-15T08:57:51.482Z,100.00
2023-05-15T09:00:39.698Z,99.49
2023-05-15T09:03:29.127Z,99.24
2023-05-15T09:06:17.592Z,100.00
2023-05-15T09:09:06.456Z,99.77
2023-05-15T09:11:55.211Z,99.32
2023-05-15T09:14:43.615Z,99.90
2023-05-15T09:17:32.086Z,99.28
2023-05-15T09:20:29.204Z,98.22
2023-05-15T09:23:26.119Z,96.62
2023-05-15T09:26:14.294Z,96.03
2023-05-15T09:29:03.833Z,96.40
2023-05-15T09:31:52.091Z,97.91
2023-05-15T09:34:41.556Z,95.49
2023-05-15T09:37:32.683Z,95.27
2023-05-15T09:40:20.909Z,95.89
2023-05-15T09:43:11.458Z,95.73
2023-05-15T09:45:59.483Z,93.22
2023-05-15T09:48:47.950Z,97.62
2023-05-15T09:51:36.010Z,95.38
2023-05-15T09:54:27.553Z,97.94
2023-05-15T09:57:16.067Z,90.40
2023-05-15T10:00:11.817Z,92.07
2023-05-15T10:03:00.100Z,97.37
2023-05-15T10:05:48.510Z,92.69
2023-05-15T10:08:37.400Z,91.96
2023-05-15T10:11:27.661Z,98.93
2023-05-15T10:14:16.575Z,95.07
2023-05-15T10:17:04.768Z,98.17
2023-05-15T10:19:58.096Z,96.28
2023-05-15T10:22:49.144Z,91.63
2023-05-15T10:25:42.631Z,90.58
2023-05-15T10:28:33.175Z,87.91
2023-05-15T10:31:21.999Z,89.88
2023-05-15T10:34:11.227Z,92.13
2023-05-15T10:37:00.422Z,88.31
2023-05-15T10:39:49.151Z,91.73
2023-05-15T10:42:38.393Z,85.08
2023-05-15T10:45:28.203Z,88.88
2023-05-15T10:48:17.156Z,91.19
2023-05-15T10:51:05.205Z,91.41
2023-05-15T10:53:53.524Z,91.21
2023-05-15T10:56:43.521Z,89.70
2023-05-15T10:59:35.964Z,89.89
2023-05-15T11:02:29.495Z,84.12
2023-05-15T11:05:17.599Z,87.04
2023-05-15T11:08:26.092Z,91.02
2023-05-15T11:11:47.461Z,93.71
2023-05-15T11:14:37.880Z,86.81
2023-05-15T11:17:27.882Z,90.72
2023-05-15T11:20:15.973Z,83.50
2023-05-15T11:23:03.946Z,83.65
2023-05-15T11:25:55.149Z,90.18
2023-05-15T11:28:47.452Z,88.34
2023-05-15T11:31:38.231Z,92.71
2023-05-15T11:34:34.380Z,88.31
2023-05-15T11:37:25.426Z,93.03
2023-05-15T11:40:21.345Z,86.23
2023-05-15T11:43:18.219Z,87.46
2023-05-15T11:46:08.662Z,92.05
2023-05-15T11:48:58.395Z,82.87
2023-05-15T11:51:51.608Z,85.43
2023-05-15T11:54:39.843Z,85.91
2023-05-15T11:57:28.200Z,83.97
2023-05-15T12:00:17.137Z,89.19
2023-05-15T12:03:05.321Z,84.37
2023-05-15T12:05:59.665Z,85.73
2023-05-15T12:08:53.763Z,84.53
2023-05-15T12:11:41.900Z,97.20
2023-05-15T12:14:29.971Z,86.04
2023-05-15T12:17:19.632Z,81.71
2023-05-15T12:20:11.078Z,83.70
2023-05-15T12:22:59.328Z,91.46
2023-05-15T12:25:50.811Z,80.85
2023-05-15T12:28:39.709Z,87.01
2023-05-15T12:31:27.861Z,84.82
2023-05-15T12:34:16.157Z,86.34
2023-05-15T12:37:04.416Z,84.29
2023-05-15T12:39:54.909Z,86.48
2023-05-15T12:42:45.224Z,85.63
2023-05-15T12:45:35.503Z,84.05
2023-05-15T12:48:24.176Z,82.24
2023-05-15T12:51:12.584Z,83.29
2023-05-15T12:54:00.638Z,80.88
2023-05-15T12:56:49.754Z,79.67
2023-05-15T12:59:40.129Z,82.48
2023-05-15T13:02:29.262Z,80.78
2023-05-15T13:05:17.422Z,81.20
2023-05-15T13:08:07.496Z,82.23
2023-05-15T13:10:59.017Z,80.65
2023-05-15T13:13:48.460Z,80.51
2023-05-15T13:16:38.065Z,82.66
2023-05-15T13:19:26.144Z,81.14
2023-05-15T13:22:14.115Z,81.86
2023-05-15T13:25:02.135Z,80.85
2023-05-15T13:27:50.143Z,82.54
2023-05-15T13:30:41.771Z,82.74
2023-05-15T13:33:32.060Z,81.79
2023-05-15T13:36:20.097Z,83.41
2023-05-15T13:39:08.132Z,83.15
2023-05-15T13:41:56.091Z,83.07
2023-05-15T13:44:44.072Z,82.79
2023-05-15T13:47:32.021Z,83.65
2023-05-15T13:50:21.437Z,82.91
2023-05-15T13:53:09.463Z,82.48
2023-05-15T13:55:57.550Z,82.13
2023-05-15T13:58:45.640Z,83.76
2023-05-15T14:01:33.684Z,82.80
2023-05-15T14:04:21.684Z,82.64
2023-05-15T14:07:11.278Z,83.23
2023-05-15T14:09:59.373Z,83.93
2023-05-15T14:12:47.315Z,84.08
2023-05-15T14:15:35.264Z,82.59
2023-05-15T14:18:23.205Z,83.81
2023-05-15T14:21:11.172Z,83.67
2023-05-15T14:24:00.480Z,84.01
2023-05-15T14:26:48.536Z,84.01
2023-05-15T14:29:36.837Z,83.29
2023-05-15T14:32:25.118Z,83.98
2023-05-15T14:35:13.067Z,83.74
2023-05-15T14:38:00.979Z,83.78
2023-05-15T14:40:50.416Z,84.13
2023-05-15T14:43:38.404Z,83.74
2023-05-15T14:46:26.397Z,83.29
2023-05-15T14:49:14.482Z,83.37
2023-05-15T14:52:02.589Z,83.45
2023-05-15T14:55:05.002Z,83.42
2023-05-15T14:57:59.313Z,83.32
2023-05-15T15:00:48.369Z,82.55
2023-05-15T15:03:36.397Z,83.23
2023-05-15T15:06:24.414Z,82.34
2023-05-15T15:09:12.360Z,80.95
2023-05-15T15:12:00.473Z,82.37
2023-05-15T15:14:49.929Z,82.13
2023-05-15T15:20:27.358Z,80.49
2023-05-15T15:23:15.708Z,80.78
2023-05-15T15:26:03.694Z,80.86
2023-05-15T15:28:51.785Z,81.83
2023-05-15T15:31:41.113Z,81.07
2023-05-15T15:34:29.028Z,81.36
2023-05-15T15:37:17.053Z,81.60
2023-05-15T15:40:07.208Z,81.41
2023-05-15T15:42:55.133Z,81.77
2023-05-15T15:45:43.105Z,83.71
2023-05-15T15:48:32.687Z,84.34
2023-05-15T15:51:21.041Z,85.66
2023-05-15T15:54:08.972Z,85.23
2023-05-15T15:56:56.945Z,84.32
2023-05-15T15:59:45.120Z,85.08
2023-05-15T16:02:33.124Z,85.99
2023-05-15T16:05:22.659Z,86.95
2023-05-15T16:08:10.640Z,88.17
2023-05-15T16:10:58.659Z,86.63
2023-05-15T16:13:46.692Z,88.22
2023-05-15T16:16:34.631Z,87.23
2023-05-15T16:19:23.091Z,87.78
2023-05-15T16:22:12.417Z,87.83
2023-05-15T16:25:00.381Z,87.11
2023-05-15T16:27:48.344Z,86.75
2023-05-15T16:30:48.009Z,88.92
2023-05-15T16:33:37.294Z,88.92
2023-05-15T16:36:25.300Z,89.02
2023-05-15T16:39:14.607Z,87.37
2023-05-15T16:42:03.215Z,87.26
2023-05-15T16:44:51.203Z,87.94
2023-05-15T16:47:41.291Z,88.37
2023-05-15T16:50:30.441Z,87.87
2023-05-15T16:53:18.809Z,89.50
2023-05-15T16:56:08.670Z,89.60
2023-05-15T16:58:56.617Z,90.46
2023-05-15T17:01:44.677Z,90.56
2023-05-15T17:04:35.175Z,90.37
2023-05-15T17:07:23.176Z,90.43
2023-05-15T17:10:12.653Z,91.61
2023-05-15T17:13:01.992Z,91.61
2023-05-15T17:15:51.266Z,91.87
2023-05-15T17:18:39.995Z,93.06
2023-05-15T17:21:28.104Z,93.57
2023-05-15T17:24:16.347Z,94.90
2023-05-15T17:27:04.348Z,95.09
2023-05-15T17:29:53.779Z,93.91
2023-05-15T17:32:44.574Z,95.17
2023-05-15T17:35:33.223Z,97.64
2023-05-15T17:38:21.475Z,97.84
2023-05-15T17:41:09.556Z,97.35
2023-05-15T17:43:57.751Z,96.10
2023-05-15T17:46:47.122Z,97.38
2023-05-15T17:49:35.285Z,98.23
2023-05-15T17:52:23.257Z,97.74
2023-05-15T17:55:11.263Z,99.13
2023-05-15T17:57:59.234Z,100.00
2023-05-15T18:00:47.274Z,100.00
2023-05-15T18:03:36.599Z,100.00
2023-05-15T18:06:24.750Z,100.00
2023-05-15T18:09:12.698Z,100.00
2023-05-15T18:12:00.754Z,100.00
2023-05-15T18:14:48.893Z,100.00
2023-05-15T18:17:37.009Z,100.00
2023-05-15T18:20:26.606Z,100.00
2023-05-15T18:23:14.615Z,100.00
2023-05-15T18:26:02.574Z,100.00
2023-05-15T18:28:50.844Z,100.00
2023-05-15T18:31:38.967Z,100.00
2023-05-15T18:34:27.017Z,100.00
2023-05-15T18:37:16.336Z,100.00
2023-05-15T18:40:05.444Z,100.00
2023-05-15T18:42:55.307Z,100.00
2023-05-15T18:45:43.336Z,100.00
2023-05-15T18:48:31.897Z,100.00
2023-05-15T18:51:20.245Z,100.00
2023-05-15T18:54:09.636Z,100.00
2023-05-15T18:56:57.766Z,100.00
2023-05-15T18:59:45.776Z,100.00
2023-05-15T19:02:33.966Z,100.00
2023-05-15T19:05:22.470Z,100.00
2023-05-15T19:08:10.557Z,100.00
2023-05-15T19:11:01.636Z,100.00
2023-05-15T19:13:49.890Z,100.00
2023-05-15T19:16:37.962Z,100.00
2023-05-15T19:19:26.322Z,100.00
2023-05-15T19:22:14.677Z,100.00
2023-05-15T19:25:02.686Z,100.00
2023-05-15T19:27:52.205Z,100.00
2023-05-15T19:30:40.405Z,100.00
2023-05-15T19:33:28.353Z,100.00
2023-05-15T19:36:19.371Z,100.00
2023-05-15T19:39:07.610Z,100.00
2023-05-15T19:41:57.624Z,100.00
2023-05-15T19:44:47.004Z,100.00
2023-05-15T19:47:35.414Z,100.00
2023-05-15T19:50:23.842Z,100.00
2023-05-15T19:53:12.339Z,100.00
2023-05-15T19:56:00.433Z,100.00
2023-05-15T19:58:48.571Z,100.00
2023-05-15T20:01:37.989Z,100.00
2023-05-15T20:04:26.091Z,100.00
2023-05-15T20:07:14.105Z,100.00
2023-05-15T20:10:02.393Z,100.00
2023-05-15T20:12:50.407Z,100.00
2023-05-15T20:15:40.145Z,100.00
2023-05-15T20:18:32.163Z,100.00
2023-05-15T20:21:21.832Z,100.00
2023-05-15T20:24:10.386Z,100.00
2023-05-15T20:26:58.554Z,100.00
2023-05-15T20:29:46.562Z,100.00
2023-05-15T20:32:34.973Z,100.00
2023-05-15T20:35:25.175Z,100.00
2023-05-15T20:38:13.900Z,100.00
2023-05-15T20:41:02.158Z,100.00
2023-05-15T20:43:50.091Z,100.00
2023-05-15T20:46:39.967Z,100.00
2023-05-15T20:49:27.937Z,100.00
2023-05-15T20:52:17.315Z,100.00
2023-05-15T20:55:05.861Z,100.00
2023-05-15T20:57:53.875Z,100.00
2023-05-15T21:00:41.763Z,100.00
2023-05-15T21:03:30.329Z,100.00
2023-05-15T21:06:18.372Z,100.00
2023-05-15T21:09:08.516Z,100.00
2023-05-15T21:11:56.621Z,100.00
2023-05-15T21:14:44.598Z,100.00
2023-05-15T21:17:32.654Z,100.00
2023-05-15T21:20:20.761Z,100.00
2023-05-15T21:23:08.809Z,100.00
2023-05-15T21:25:58.196Z,100.00
2023-05-15T21:28:46.249Z,100.00
2023-05-15T21:31:34.252Z,100.00
2023-05-15T21:34:22.569Z,100.00
2023-05-15T21:37:10.535Z,100.00
2023-05-15T21:39:58.529Z,100.00
2023-05-15T21:42:47.790Z,100.00
2023-05-15T21:45:35.793Z,100.00
2023-05-15T21:48:23.778Z,100.00
2023-05-15T21:51:11.814Z,100.00
2023-05-15T21:53:59.817Z,100.00
2023-05-15T21:56:47.728Z,100.00
2023-05-15T21:59:37.085Z,100.00
2023-05-15T22:02:25.013Z,100.00
2023-05-15T22:05:13.086Z,100.00
2023-05-15T22:08:01.237Z,100.00
2023-05-15T22:10:49.433Z,100.00
2023-05-15T22:13:37.517Z,100.00
2023-05-15T22:16:26.941Z,100.00
2023-05-15T22:19:29.047Z,100.00
2023-05-15T22:22:21.102Z,100.00
2023-05-15T22:25:10.080Z,100.00
2023-05-15T22:27:58.000Z,100.00
2023-05-15T22:30:45.986Z,100.00
2023-05-15T22:33:35.383Z,100.00
2023-05-15T22:36:23.342Z,100.00
2023-05-15T22:39:11.449Z,100.00
2023-05-15T22:41:59.382Z,100.00
2023-05-15T22:44:47.689Z,100.00
2023-05-15T22:47:35.747Z,100.00
2023-05-15T22:50:25.377Z,100.00
2023-05-15T22:53:13.675Z,100.00
2023-05-15T22:56:01.598Z,100.00
2023-05-15T22:58:49.716Z,100.00
2023-05-15T23:01:37.797Z,100.00
2023-05-15T23:04:26.126Z,100.00
2023-05-15T23:07:17.309Z,100.00
2023-05-15T23:10:05.872Z,100.00
2023-05-15T23:12:53.903Z,100.00
2023-05-15T23:15:44.174Z,100.00
2023-05-15T23:18:32.254Z,100.00
2023-05-15T23:21:20.265Z,100.00
2023-05-15T23:24:09.719Z,100.00
2023-05-15T23:26:57.750Z,100.00
2023-05-15T23:29:46.222Z,100.00
2023-05-15T23:32:34.288Z,100.00
2023-05-15T23:35:22.372Z,100.00
2023-05-15T23:38:10.327Z,100.00
2023-05-15T23:40:59.773Z,100.00
2023-05-15T23:43:49.687Z,100.00
2023-05-15T23:46:38.799Z,100.00
2023-05-15T23:49:26.900Z,100.00
2023-05-15T23:52:14.937Z,100.00
2023-05-15T23:55:02.909Z,100.00
2023-05-15T23:57:52.286Z,100.00
